Time;durP1;ratioP1;P1;durP2;ratioP2;P2;SDS_P1;SDS_P2;PMS_P1;PMS_P2;Temp;Humidity;BMP_temperature;BMP_pressure;BME280_temperature;BME280_humidity;BME280_pressure;Samples;Min_cycle;Max_cycle;Signal;HPM_P1;HPM_P2
2021/12/01 00:01:34;;;;;;;1.00;0.82;;;;;;;-1.41;65.62;96490.41;5052164;28;20043;-86
2021/12/01 00:04:00;;;;;;;2.50;1.17;;;;;;;-1.32;66.33;96503.88;5079043;28;20016;-86
2021/12/01 00:06:26;;;;;;;2.22;0.88;;;;;;;-1.58;64.94;96504.06;5066224;28;20031;-86
2021/12/01 00:08:51;;;;;;;3.10;1.10;;;;;;;-1.46;65.16;96500.63;5080465;28;20438;-85
2021/12/01 00:11:17;;;;;;;2.08;1.10;;;;;;;-1.49;65.75;96500.63;5067789;28;20077;-86
2021/12/01 00:13:43;;;;;;;2.65;0.90;;;;;;;-1.41;66.14;96503.97;5067241;28;20040;-86
2021/12/01 00:16:09;;;;;;;1.70;0.90;;;;;;;-1.52;66.29;96499.81;5063525;28;20032;-84
2021/12/01 00:18:34;;;;;;;1.85;1.00;;;;;;;-1.60;66.46;96513.44;5089055;28;20090;-83
2021/12/01 00:21:00;;;;;;;1.65;1.00;;;;;;;-1.74;66.42;96517.75;5076322;28;20048;-84
2021/12/01 00:23:26;;;;;;;1.92;1.00;;;;;;;-1.60;66.42;96508.34;5085069;28;20039;-84
2021/12/01 00:25:52;;;;;;;1.88;1.13;;;;;;;-1.55;66.68;96503.22;5075224;28;20488;-84
2021/12/01 00:28:18;;;;;;;;;;;;;;;-1.56;66.98;96510.00;5076318;28;20128;-83
2021/12/01 00:30:43;;;;;;;2.63;1.00;;;;;;;-1.56;66.73;96507.47;5084717;28;19939;-84
2021/12/01 00:33:11;;;;;;;2.13;1.00;;;;;;;-1.52;67.39;96502.34;5098716;28;20058;-83
2021/12/01 00:35:37;;;;;;;2.45;0.95;;;;;;;-1.55;66.93;96511.69;5099116;28;20067;-83
2021/12/01 00:38:03;;;;;;;1.67;1.00;;;;;;;-1.43;66.29;96499.72;5101977;28;20061;-84
2021/12/01 00:40:29;;;;;;;2.08;0.98;;;;;;;-1.61;64.46;96491.38;5102121;28;20077;-84
2021/12/01 00:42:55;;;;;;;1.63;0.80;;;;;;;-1.53;65.20;96488.78;5115275;28;20092;-83
2021/12/01 00:45:22;;;;;;;1.85;1.10;;;;;;;-1.61;64.75;96541.38;5071996;28;20089;-83
2021/12/01 00:47:52;;;;;;;2.90;1.00;;;;;;;-1.50;64.78;96487.94;5089283;28;20427;-83
2021/12/01 00:50:25;;;;;;;2.35;0.98;;;;;;;-1.49;64.80;96499.78;5091675;28;20043;-83
2021/12/01 00:52:52;;;;;;;1.52;0.90;;;;;;;-1.51;64.60;96481.13;5081822;28;20043;-84
2021/12/01 00:55:18;;;;;;;2.00;0.90;;;;;;;-1.37;64.63;96485.28;5073354;28;20535;-83
2021/12/01 00:57:44;;;;;;;1.88;0.90;;;;;;;-1.50;64.62;96485.41;5090014;28;20052;-83
2021/12/01 01:00:12;;;;;;;2.22;1.40;;;;;;;-1.64;64.39;96491.41;5099422;28;20070;-83
2021/12/01 01:02:38;;;;;;;2.22;0.90;;;;;;;-1.61;64.91;96486.28;5072737;28;20036;-83
2021/12/01 01:05:05;;;;;;;1.80;1.00;;;;;;;-1.29;64.44;96497.91;5067448;28;20047;-83
2021/12/01 01:07:30;;;;;;;1.92;0.95;;;;;;;-1.47;63.83;96487.91;5084437;28;20044;-84
2021/12/01 01:09:59;;;;;;;1.83;1.00;;;;;;;-1.54;63.43;96480.31;5065112;28;20032;-83
2021/12/01 01:18:05;;;;;;;5.07;1.00;;;;;;;-1.55;62.21;96496.44;5102253;28;20101;-83
2021/12/01 01:20:32;;;;;;;2.08;0.80;;;;;;;-1.40;62.89;96480.22;5100141;28;20043;-83
2021/12/01 01:22:57;;;;;;;6.05;1.90;;;;;;;-1.42;62.11;96484.47;5060409;28;20040;-84
2021/12/01 01:25:23;;;;;;;1.88;0.93;;;;;;;-1.22;62.27;96512.28;5109071;28;20550;-84
2021/12/01 01:27:49;;;;;;;1.52;0.93;;;;;;;-1.34;62.25;96494.56;5083973;28;20036;-84
2021/12/01 01:30:15;;;;;;;1.73;0.90;;;;;;;-1.55;61.99;96488.81;5096085;28;20121;-84
2021/12/01 01:32:40;;;;;;;1.60;0.88;;;;;;;-1.52;62.10;96504.88;5088860;28;20547;-84
2021/12/01 01:35:07;;;;;;;1.35;0.80;;;;;;;-1.51;62.63;96486.22;5085735;28;20028;-83
2021/12/01 01:37:32;;;;;;;1.20;0.80;;;;;;;-1.52;62.11;96495.56;5074028;28;20521;-84
2021/12/01 01:39:58;;;;;;;1.73;0.95;;;;;;;-1.61;61.60;96482.91;5091815;28;20040;-85
2021/12/01 01:42:24;;;;;;;1.35;0.75;;;;;;;-1.50;62.78;96493.88;5103916;28;20069;-87
2021/12/01 01:44:50;;;;;;;1.10;0.80;;;;;;;-1.57;61.45;96485.41;5063385;28;20036;-86
2021/12/01 01:47:17;;;;;;;2.00;0.88;;;;;;;-1.63;61.94;96507.50;5098155;28;20027;-87
2021/12/01 01:52:09;;;;;;;1.65;0.98;;;;;;;-1.52;61.94;96504.88;5079339;28;20119;-87
2021/12/01 01:54:35;;;;;;;2.40;0.95;;;;;;;-1.72;61.24;96497.41;5083799;28;20051;-86
2021/12/01 01:57:01;;;;;;;1.30;0.80;;;;;;;-1.72;61.81;96517.75;5078273;28;20442;-86
2021/12/01 01:59:27;;;;;;;1.73;0.90;;;;;;;-1.68;62.38;96521.94;5052936;28;20044;-85
2021/12/01 02:01:57;;;;;;;2.50;1.05;;;;;;;-1.59;63.17;96504.94;5054218;28;20114;-86
2021/12/01 02:04:23;;;;;;;2.50;0.85;;;;;;;-1.68;62.05;96505.00;5065943;28;20036;-83
2021/12/01 02:06:49;;;;;;;1.30;0.80;;;;;;;-1.52;61.71;96515.06;5079315;28;20043;-83
2021/12/01 02:09:19;;;;;;;1.77;1.00;;;;;;;-1.43;61.25;96525.16;5051886;28;20029;-83
2021/12/01 02:11:45;;;;;;;2.63;0.90;;;;;;;-1.40;61.71;96537.84;5098002;28;20444;-84
2021/12/01 02:14:11;;;;;;;1.25;0.80;;;;;;;-1.42;61.86;96531.91;5077417;28;20040;-84
2021/12/01 02:16:37;;;;;;;1.90;0.90;;;;;;;-1.38;61.88;96533.59;5074623;28;20036;-86
2021/12/01 02:19:03;;;;;;;2.00;0.80;;;;;;;-1.48;61.28;96532.81;5086752;28;20130;-85
2021/12/01 02:21:30;;;;;;;1.48;0.90;;;;;;;-1.37;61.39;96510.72;5103076;28;20046;-84
2021/12/01 02:23:56;;;;;;;;;;;;;;;-1.39;61.33;96527.66;5077509;28;20040;-85
2021/12/01 02:26:22;;;;;;;1.65;0.85;;;;;;;-1.51;61.34;96521.81;5096506;28;19954;-84
2021/12/01 02:28:50;;;;;;;;;;;;;;;-1.48;62.02;96524.34;5065940;28;20052;-84
2021/12/01 02:31:16;;;;;;;2.40;0.98;;;;;;;-1.54;61.29;96522.69;5066128;28;19919;-85
2021/12/01 02:33:42;;;;;;;2.15;0.98;;;;;;;-1.54;61.53;96532.88;5076435;28;20483;-85
2021/12/01 02:36:14;;;;;;;2.22;0.90;;;;;;;-1.59;60.89;96520.19;5081933;28;20050;-85
2021/12/01 02:38:42;;;;;;;2.00;0.80;;;;;;;-1.47;60.79;96528.56;5063896;28;20462;-85
2021/12/01 02:41:08;;;;;;;1.55;0.82;;;;;;;-1.49;60.58;96526.03;5082480;28;20036;-86
2021/12/01 02:43:34;;;;;;;1.45;0.90;;;;;;;-1.67;61.27;96521.09;5082899;28;20447;-84
2021/12/01 02:46:00;;;;;;;1.15;0.70;;;;;;;-1.59;61.57;96517.66;5065251;28;20056;-85
2021/12/01 02:48:26;;;;;;;1.77;0.90;;;;;;;-1.52;61.34;96530.31;5077353;28;20414;-85
2021/12/01 02:50:53;;;;;;;1.88;0.95;;;;;;;-1.70;61.21;96531.25;5096228;28;20032;-85
2021/12/01 02:53:23;;;;;;;1.63;0.98;;;;;;;-1.63;60.80;96533.78;5074582;28;20040;-84
2021/12/01 02:55:50;;;;;;;1.52;0.80;;;;;;;-1.43;61.11;96517.53;5117646;28;20495;-85
2021/12/01 02:58:17;;;;;;;2.95;0.90;;;;;;;-1.44;61.24;96533.66;5077241;28;20035;-86
2021/12/01 03:00:43;;;;;;;1.10;0.88;;;;;;;-1.51;61.62;96526.91;5066954;28;20039;-85
2021/12/01 03:03:09;;;;;;;1.42;0.90;;;;;;;-1.48;61.22;96537.06;5064314;28;20048;-85
2021/12/01 03:05:35;;;;;;;;;;;;;;;-1.68;60.69;96530.41;5050940;28;20490;-85
2021/12/01 03:08:00;;;;;;;1.92;0.90;;;;;;;-1.66;60.95;96508.34;5098367;28;20060;-85
2021/12/01 03:10:26;;;;;;;;;;;;;;;-1.48;61.19;96521.81;5049794;28;20097;-85
2021/12/01 03:12:52;;;;;;;2.13;0.93;;;;;;;-1.69;60.67;96518.56;5083357;28;20378;-85
2021/12/01 03:15:19;;;;;;;1.80;0.90;;;;;;;-1.74;61.32;96524.50;5082277;28;20510;-86
2021/12/01 03:17:45;;;;;;;2.08;0.90;;;;;;;-1.68;61.97;96516.88;5083475;28;20060;-86
2021/12/01 03:20:11;;;;;;;2.28;0.95;;;;;;;-1.78;61.84;96533.03;5100395;28;20042;-85
2021/12/01 03:22:37;;;;;;;1.67;0.90;;;;;;;-1.77;61.82;96520.31;5077969;28;20498;-85
2021/12/01 03:25:08;;;;;;;1.35;0.93;;;;;;;-1.63;61.94;96531.22;5084616;28;20110;-85
2021/12/01 03:27:35;;;;;;;2.17;1.10;;;;;;;-1.80;61.62;96511.00;5095864;28;20135;-84
2021/12/01 03:30:01;;;;;;;1.48;1.00;;;;;;;-1.93;62.18;96519.53;5098765;28;20406;-84
2021/12/01 03:32:27;;;;;;;1.90;0.90;;;;;;;-1.77;62.25;96530.47;5072616;28;20130;-85
2021/12/01 03:34:52;;;;;;;2.38;0.90;;;;;;;-1.76;62.96;96526.22;5106265;28;20032;-85
2021/12/01 03:37:18;;;;;;;2.15;0.95;;;;;;;-1.81;62.58;96511.00;5066319;28;20044;-83
2021/12/01 03:39:44;;;;;;;0.70;0.60;;;;;;;-1.67;62.91;96510.94;5084619;28;20101;-84
2021/12/01 03:42:10;;;;;;;1.77;1.00;;;;;;;-1.87;62.69;96518.69;5078240;28;20415;-83
2021/12/01 03:44:35;;;;;;;1.40;0.80;;;;;;;-1.82;63.12;96522.03;5063867;28;20118;-83
2021/12/01 03:47:01;;;;;;;1.45;0.85;;;;;;;-1.76;63.24;96546.56;5066156;28;20036;-84
2021/12/01 03:49:27;;;;;;;1.70;0.90;;;;;;;-1.73;63.40;96516.06;5081085;28;20123;-85
2021/12/01 03:51:54;;;;;;;2.38;1.05;;;;;;;-1.73;62.76;96537.22;5066400;28;20036;-83
2021/12/01 03:54:19;;;;;;;;;;;;;;;-1.65;62.95;96537.16;5071754;28;20487;-89
2021/12/01 03:56:45;;;;;;;2.05;1.00;;;;;;;-1.69;61.98;96528.72;5099429;28;19916;-88
2021/12/01 03:59:12;;;;;;;1.77;0.90;;;;;;;-1.79;61.97;96532.16;5069179;28;20024;-79
2021/12/01 04:01:38;;;;;;;2.97;1.00;;;;;;;-1.75;62.85;96517.75;5069127;28;20044;-78
2021/12/01 04:04:04;;;;;;;3.13;1.17;;;;;;;-1.81;63.48;96533.88;5096491;28;20086;-85
2021/12/01 04:06:30;;;;;;;2.95;1.00;;;;;;;-1.83;63.80;96522.91;5077926;28;20023;-86
2021/12/01 04:08:56;;;;;;;3.90;1.10;;;;;;;-1.84;63.81;96533.88;5090328;27;20114;-87
2021/12/01 04:11:22;;;;;;;1.92;0.90;;;;;;;-1.73;63.76;96546.53;5121831;28;20040;-86
2021/12/01 04:13:48;;;;;;;2.13;1.20;;;;;;;-1.82;63.63;96538.13;5096367;28;20482;-87
2021/12/01 04:16:14;;;;;;;2.28;0.93;;;;;;;-1.80;62.73;96544.03;5070790;28;20072;-87
2021/12/01 04:18:42;;;;;;;1.73;1.00;;;;;;;-1.82;63.75;96539.81;5106504;28;20043;-88
2021/12/01 04:21:08;;;;;;;1.85;1.05;;;;;;;-1.90;63.88;96523.75;5076288;28;20048;-88
2021/12/01 04:23:34;;;;;;;1.33;0.70;;;;;;;-1.75;63.69;96518.59;5072652;28;20453;-87
2021/12/01 04:26:01;;;;;;;2.35;1.08;;;;;;;-1.62;63.25;96524.44;5075326;28;20037;-87
2021/12/01 04:28:29;;;;;;;1.63;1.02;;;;;;;-1.93;62.75;96533.94;5084820;28;20058;-87
2021/12/01 04:30:54;;;;;;;;;;;;;;;-1.94;63.54;96548.34;5073890;28;20036;-87
2021/12/01 04:33:20;;;;;;;1.65;0.95;;;;;;;-2.03;63.67;96519.59;5078648;28;19916;-85
2021/12/01 04:35:48;;;;;;;1.88;0.95;;;;;;;-2.01;63.86;96528.91;5045184;28;20070;-87
2021/12/01 04:38:14;;;;;;;2.88;1.02;;;;;;;-1.95;63.48;96540.72;5075740;28;20042;-87
2021/12/01 04:40:40;;;;;;;1.60;0.90;;;;;;;-1.90;63.80;96539.84;5066750;28;20048;-88
2021/12/01 04:43:06;;;;;;;1.58;1.10;;;;;;;-1.93;63.50;96539.00;5074786;28;20036;-88
2021/12/01 04:45:36;;;;;;;;;;;;;;;-2.02;63.82;96554.31;5077315;28;20042;-88
2021/12/01 04:48:02;;;;;;;1.88;1.10;;;;;;;-2.05;63.66;96538.25;5072404;28;19948;-87
2021/12/01 04:50:30;;;;;;;1.70;1.10;;;;;;;-1.94;63.22;96555.13;5087344;28;20031;-87
2021/12/01 04:52:58;;;;;;;3.20;1.15;;;;;;;-2.07;63.97;96557.69;5059440;28;20045;-88
2021/12/01 04:55:25;;;;;;;3.55;1.13;;;;;;;-2.00;63.98;96545.84;5068198;28;20053;-89
2021/12/01 04:57:51;;;;;;;3.03;1.20;;;;;;;-1.94;63.71;96550.03;5070327;28;20032;-87
2021/12/01 05:00:20;;;;;;;2.83;1.38;;;;;;;-2.05;63.66;96555.19;5087935;28;20036;-87
2021/12/01 05:02:47;;;;;;;1.65;0.90;;;;;;;-1.97;63.85;96550.03;5089143;28;20023;-88
2021/12/01 05:05:14;;;;;;;2.67;1.00;;;;;;;-2.03;64.00;96539.91;5091244;28;20031;-89
2021/12/01 05:07:40;;;;;;;3.13;1.40;;;;;;;-2.14;63.80;96540.81;5104825;28;20039;-86
2021/12/01 05:10:06;;;;;;;;;;;;;;;-2.08;64.10;96571.25;5086149;28;20051;-88
2021/12/01 05:12:36;;;;;;;2.42;1.10;;;;;;;-2.21;64.23;96558.63;5091853;28;19911;-87
2021/12/01 05:15:03;;;;;;;1.73;1.00;;;;;;;-2.18;63.96;96569.59;5099463;28;20040;-87
2021/12/01 05:17:29;;;;;;;2.78;1.17;;;;;;;-2.20;64.58;96576.41;5061748;28;20395;-87
2021/12/01 05:19:55;;;;;;;1.85;1.05;;;;;;;-2.15;65.09;96551.84;5082646;28;20046;-87
2021/12/01 05:22:21;;;;;;;2.42;1.10;;;;;;;-2.19;64.67;96547.63;5081026;28;20044;-86
2021/12/01 05:24:46;;;;;;;2.55;1.17;;;;;;;-2.11;64.82;96572.97;5082663;28;20073;-88
2021/12/01 05:27:12;;;;;;;4.45;1.05;;;;;;;-2.10;64.43;96562.81;5057736;28;20043;-89
2021/12/01 05:29:38;;;;;;;1.65;0.90;;;;;;;-1.86;64.79;96577.09;5074875;28;20055;-88
2021/12/01 05:32:04;;;;;;;2.42;1.20;;;;;;;-1.74;64.18;96573.66;5068126;28;20044;-88
2021/12/01 05:34:30;;;;;;;2.13;1.00;;;;;;;-1.68;63.99;96575.31;5053242;28;20043;-87
2021/12/01 05:37:00;;;;;;;3.55;1.10;;;;;;;-1.77;63.74;96570.28;5071554;28;20027;-87
2021/12/01 05:39:28;;;;;;;2.17;1.30;;;;;;;-1.92;63.62;96566.97;5072824;28;20441;-87
2021/12/01 05:41:54;;;;;;;2.22;1.30;;;;;;;-1.81;64.30;96569.44;5069420;28;20045;-87
2021/12/01 05:44:20;;;;;;;2.10;1.25;;;;;;;-1.83;64.21;96582.16;5072609;28;20047;-89
2021/12/01 05:46:46;;;;;;;2.92;1.50;;;;;;;-1.84;64.59;96587.25;5077233;28;20081;-86
2021/12/01 05:49:12;;;;;;;3.03;1.30;;;;;;;-1.91;64.28;96586.44;5079207;28;20068;-87
2021/12/01 05:51:38;;;;;;;3.28;1.63;;;;;;;-2.09;64.94;96583.97;5072002;28;20057;-87
2021/12/01 05:54:04;;;;;;;2.15;1.60;;;;;;;-2.08;65.38;96575.50;5078509;28;20060;-88
2021/12/01 05:56:30;;;;;;;4.78;1.85;;;;;;;-1.96;65.51;96590.69;5046837;28;20101;-87
2021/12/01 05:58:56;;;;;;;2.05;1.38;;;;;;;-1.86;65.27;96599.13;5067715;28;20495;-87
2021/12/01 06:01:22;;;;;;;2.60;1.48;;;;;;;-1.95;65.60;96597.47;5049706;28;20032;-87
2021/12/01 06:03:48;;;;;;;2.75;1.50;;;;;;;-1.93;65.70;96603.38;5060326;28;20051;-88
2021/12/01 06:06:14;;;;;;;3.80;1.38;;;;;;;-1.89;65.50;96596.59;5066201;28;20036;-88
2021/12/01 06:08:40;;;;;;;3.95;1.75;;;;;;;-1.80;65.32;96599.09;5090430;28;20043;-88
2021/12/01 06:11:06;;;;;;;3.15;1.90;;;;;;;-1.96;65.45;96602.56;5090349;28;20027;-90
2021/12/01 06:13:32;;;;;;;3.78;1.70;;;;;;;-1.83;65.94;96611.81;5090796;28;20047;-87
2021/12/01 06:15:58;;;;;;;3.10;1.73;;;;;;;-1.87;65.42;96617.75;5067088;28;20105;-89
2021/12/01 06:18:24;;;;;;;3.88;1.83;;;;;;;-1.94;65.54;96611.00;5070841;28;20052;-87
2021/12/01 06:20:50;;;;;;;2.80;1.70;;;;;;;-1.72;66.07;96614.31;5065813;28;20084;-88
2021/12/01 06:23:16;;;;;;;4.20;2.20;;;;;;;-1.74;65.26;96616.84;5068954;28;20056;-88
2021/12/01 06:25:41;;;;;;;7.13;2.00;;;;;;;-1.65;64.95;96621.03;5062890;28;20027;-88
2021/12/01 06:28:07;;;;;;;;;;;;;;;-1.65;64.97;96638.81;5092461;28;20530;-89
2021/12/01 06:30:36;;;;;;;3.97;1.80;;;;;;;-1.73;64.71;96627.88;5125631;28;19912;-89
2021/12/01 06:33:02;;;;;;;3.90;1.80;;;;;;;-1.71;64.79;96626.16;5060886;28;20044;-89
2021/12/01 06:35:28;;;;;;;5.63;2.10;;;;;;;-1.86;64.72;96633.00;5070466;28;20032;-86
2021/12/01 06:37:55;;;;;;;4.68;2.30;;;;;;;-1.84;65.19;96625.34;5085241;28;20059;-88
2021/12/01 06:40:22;;;;;;;3.92;2.42;;;;;;;-1.90;66.12;96638.94;5072333;28;20028;-89
2021/12/01 06:42:48;;;;;;;4.13;2.10;;;;;;;-1.91;65.06;96654.19;5071433;28;20097;-90
2021/12/01 06:45:16;;;;;;;4.25;2.45;;;;;;;-1.99;65.91;96621.19;5072682;28;20510;-89
2021/12/01 06:47:42;;;;;;;4.95;2.55;;;;;;;-1.88;66.54;96649.06;5070499;28;20491;-88
2021/12/01 06:50:08;;;;;;;6.70;2.72;;;;;;;-2.17;66.49;96636.47;5080589;28;20061;-88
2021/12/01 06:52:34;;;;;;;4.10;2.65;;;;;;;-2.09;67.08;96635.59;5066115;28;20076;-88
2021/12/01 06:55:00;;;;;;;3.72;2.47;;;;;;;-2.12;66.72;96638.16;5064475;28;20036;-88
2021/12/01 06:57:26;;;;;;;;;;;;;;;-1.99;67.57;96660.97;5058054;28;20040;-87
2021/12/01 06:59:52;;;;;;;3.50;2.33;;;;;;;-1.98;66.80;96637.25;5092199;28;19979;-89
2021/12/01 07:02:18;;;;;;;4.45;2.75;;;;;;;-2.00;67.10;96649.13;5074037;28;20147;-88
2021/12/01 07:04:44;;;;;;;5.10;2.90;;;;;;;-2.15;67.14;96655.94;5077248;28;20097;-88
2021/12/01 07:07:12;;;;;;;4.68;2.85;;;;;;;-2.21;66.65;96640.72;5064036;28;20058;-88
2021/12/01 07:09:37;;;;;;;5.28;2.50;;;;;;;-2.06;66.35;96648.31;5072873;28;20120;-89
2021/12/01 07:12:04;;;;;;;3.70;2.00;;;;;;;-2.07;66.72;96658.44;5088605;28;20107;-88
2021/12/01 07:14:31;;;;;;;;;;;;;;;-1.91;66.15;96667.72;5073914;28;20040;-88
2021/12/01 07:16:59;;;;;;;4.22;2.65;;;;;;;-1.92;66.79;96652.50;5087782;28;19916;-88
2021/12/01 07:19:24;;;;;;;3.58;2.30;;;;;;;-1.83;66.13;96671.09;5069485;28;20067;-88
2021/12/01 07:21:50;;;;;;;3.70;2.58;;;;;;;-1.90;65.86;96661.78;5085100;28;20041;-87
2021/12/01 07:24:19;;;;;;;6.63;2.42;;;;;;;-1.86;65.90;96665.19;5085987;28;20035;-88
2021/12/01 07:26:46;;;;;;;3.75;2.40;;;;;;;-1.78;65.40;96686.31;5093106;28;20117;-90
2021/12/01 07:29:11;;;;;;;;;;;;;;;-1.86;65.33;96693.13;5079156;28;20024;-89
2021/12/01 07:31:39;;;;;;;7.32;2.60;;;;;;;-1.85;65.44;96671.94;5115283;28;19916;-88
2021/12/01 07:34:05;;;;;;;6.70;2.17;;;;;;;-1.89;64.71;96675.34;5071368;28;20461;-89
2021/12/01 07:36:32;;;;;;;2.92;2.05;;;;;;;-1.71;65.26;96670.19;5079052;28;20024;-89
2021/12/01 07:38:59;;;;;;;4.85;2.55;;;;;;;-1.65;64.02;96693.06;5094789;28;20106;-88
2021/12/01 07:41:26;;;;;;;5.45;2.67;;;;;;;-1.92;64.53;96681.28;5095389;28;20039;-88
2021/12/01 07:43:52;;;;;;;4.05;2.20;;;;;;;-1.89;65.05;96693.13;5080876;28;20506;-87
2021/12/01 07:46:18;;;;;;;4.00;2.40;;;;;;;-1.83;64.30;96688.88;5085774;28;20044;-88
2021/12/01 07:48:44;;;;;;;4.35;2.33;;;;;;;-1.75;64.23;96680.38;5059098;28;20043;-89
2021/12/01 07:51:10;;;;;;;;;;;;;;;-1.60;64.14;96691.34;5076698;28;20063;-88
2021/12/01 07:53:35;;;;;;;5.03;2.60;;;;;;;-1.68;64.28;96682.06;5091116;28;19916;-87
2021/12/01 07:56:04;;;;;;;3.28;2.20;;;;;;;-1.70;63.81;96715.06;5072367;28;20088;-88
2021/12/01 07:58:30;;;;;;;5.07;2.47;;;;;;;-1.74;63.31;96702.38;5057594;28;20449;-88
2021/12/01 08:00:56;;;;;;;;;;;;;;;-1.59;63.86;96708.28;5074952;28;20066;-89
2021/12/01 08:03:23;;;;;;;4.20;2.60;;;;;;;-1.64;63.50;96702.38;5072669;28;19912;-88
2021/12/01 08:05:49;;;;;;;4.18;2.33;;;;;;;-1.66;63.67;96698.97;5074246;28;20051;-88
2021/12/01 08:08:15;;;;;;;2.80;2.05;;;;;;;-1.69;63.40;96701.53;5073500;28;20053;-90
2021/12/01 08:10:41;;;;;;;4.50;2.45;;;;;;;-1.73;63.33;96693.94;5071363;28;20043;-88
2021/12/01 08:13:07;;;;;;;3.70;2.33;;;;;;;-1.81;63.30;96696.50;5086878;28;20031;-88
2021/12/01 08:15:39;;;;;;;5.75;2.50;;;;;;;-1.72;63.54;96706.63;5073277;28;20491;-89
2021/12/01 08:18:07;;;;;;;3.47;2.50;;;;;;;-1.79;63.78;96699.84;5092728;28;20067;-86
2021/12/01 08:20:36;;;;;;;4.90;2.45;;;;;;;-1.79;63.22;96707.47;5068278;28;20040;-88
2021/12/01 08:23:02;;;;;;;4.88;2.63;;;;;;;-1.65;63.24;96702.34;5075836;28;20050;-89
2021/12/01 08:25:28;;;;;;;;;;;;;;;-1.65;63.77;96715.06;5083270;28;20394;-87
2021/12/01 08:27:55;;;;;;;7.32;2.70;;;;;;;-1.71;63.80;96700.69;5103286;28;19967;-89
2021/12/01 08:30:21;;;;;;;4.05;2.50;;;;;;;-1.80;63.73;96715.97;5089148;28;20028;-88
2021/12/01 08:32:48;;;;;;;3.63;2.38;;;;;;;-1.71;63.86;96717.63;5059711;28;20066;-89
2021/12/01 08:35:14;;;;;;;4.20;2.13;;;;;;;-1.72;64.10;96726.13;5073691;28;20051;-88
2021/12/01 08:37:41;;;;;;;3.95;2.20;;;;;;;-1.84;64.51;96709.19;5073416;28;20075;-87
2021/12/01 08:40:07;;;;;;;4.90;2.47;;;;;;;-1.61;64.74;96719.28;5076525;28;20032;-89
2021/12/01 08:42:34;;;;;;;4.70;2.22;;;;;;;-1.68;63.78;96703.22;5093290;28;20067;-87
2021/12/01 08:45:03;;;;;;;3.67;2.47;;;;;;;-1.62;63.34;96715.91;5073838;28;20509;-88
2021/12/01 08:47:31;;;;;;;4.18;2.20;;;;;;;-1.40;63.41;96728.53;5095197;28;20044;-90
2021/12/01 08:49:57;;;;;;;4.82;2.63;;;;;;;-1.56;63.63;96707.41;5077649;28;20062;-88
2021/12/01 08:55:23;;;;;;;3.47;2.47;;;;;;;-1.40;62.85;96718.38;4997959;23;20050;-90
2021/12/01 08:57:50;;;;;;;7.05;2.67;;;;;;;-1.40;62.48;96724.31;4958337;28;20046;-88
2021/12/01 09:00:17;;;;;;;4.28;2.53;;;;;;;-1.50;62.12;96716.72;4958460;28;20045;-89
2021/12/01 09:02:46;;;;;;;4.18;2.88;;;;;;;-1.50;61.69;96702.31;4960156;28;20053;-89
2021/12/01 09:05:17;;;;;;;4.30;2.55;;;;;;;-1.59;62.08;96703.19;4976289;28;20031;-89
2021/12/01 09:07:43;;;;;;;3.35;2.22;;;;;;;-1.54;62.50;96716.72;4961991;28;20039;-89
2021/12/01 09:10:16;;;;;;;6.03;2.33;;;;;;;-1.42;62.52;96720.06;4961744;28;20053;-89
2021/12/01 09:12:43;;;;;;;5.15;3.13;;;;;;;-1.40;62.21;96723.47;4974550;28;20058;-89
2021/12/01 09:15:09;;;;;;;4.60;2.35;;;;;;;-1.51;61.50;96733.69;4961412;28;20166;-88
2021/12/01 09:17:36;;;;;;;3.63;2.67;;;;;;;-1.65;61.66;96717.59;4960435;28;20058;-88
2021/12/01 09:20:05;;;;;;;4.28;2.20;;;;;;;-1.63;62.00;96726.09;4962900;28;20011;-90
2021/12/01 09:22:34;;;;;;;3.05;1.90;;;;;;;-1.50;61.67;96737.91;4977259;28;20062;-89
2021/12/01 09:25:03;;;;;;;4.45;2.20;;;;;;;-1.47;61.48;96724.31;4943917;28;20035;-90
2021/12/01 09:27:30;;;;;;;3.05;2.15;;;;;;;-1.41;60.72;96729.41;4975159;28;20047;-88
2021/12/01 09:29:56;;;;;;;3.40;2.00;;;;;;;-1.42;60.62;96730.22;4968230;28;20034;-87
2021/12/01 09:32:22;;;;;;;3.92;2.65;;;;;;;-1.49;60.55;96726.03;4960534;28;20034;-88
2021/12/01 09:34:51;;;;;;;4.15;2.10;;;;;;;-1.42;61.21;96750.56;4959303;28;20375;-88
2021/12/01 09:37:17;;;;;;;2.95;2.00;;;;;;;-1.34;61.75;96729.34;4971997;28;20062;-89
2021/12/01 09:39:44;;;;;;;;;;;;;;;-1.42;60.87;96764.16;4975825;28;20016;-88
2021/12/01 09:42:11;;;;;;;4.93;2.30;;;;;;;-1.70;61.82;96737.94;4967159;28;19929;-90
2021/12/01 09:44:39;;;;;;;5.07;3.15;;;;;;;-1.49;62.11;96759.94;5101953;23;20063;-89
2021/12/01 09:47:17;;;;;;;5.35;2.20;;;;;;;-1.44;61.92;96750.59;4956502;28;20043;-89
2021/12/01 09:58:07;;;;;;;3.95;2.28;;;;;;;-1.58;60.85;96760.78;5407118;23;20756;-87
2021/12/01 10:00:36;;;;;;;4.13;2.35;;;;;;;-1.48;61.12;96760.78;4948724;29;20043;-87
2021/12/01 10:03:02;;;;;;;3.67;2.20;;;;;;;-1.40;60.29;96775.16;4941948;29;20036;-88
2021/12/01 10:08:44;;;;;;;3.60;2.10;;;;;;;-1.71;59.09;96761.69;4974404;28;20059;-90
2021/12/01 10:11:11;;;;;;;3.03;1.83;;;;;;;-1.79;59.95;96750.69;4936000;29;20067;-89
2021/12/01 10:26:01;;;;;;;4.97;2.20;;;;;;;-1.43;58.38;96774.31;5038230;23;20046;-88
2021/12/01 10:31:11;;;;;;;3.78;2.30;;;;;;;-1.73;58.90;96771.00;5088299;23;20508;-89
2021/12/01 10:33:38;;;;;;;3.50;2.10;;;;;;;-1.80;58.71;96779.47;4975570;28;20043;-89
2021/12/01 10:36:07;;;;;;;3.92;2.17;;;;;;;-2.01;58.12;96790.53;4945829;29;20035;-88
2021/12/01 10:38:41;;;;;;;6.35;2.15;;;;;;;-1.96;58.45;96782.91;4947824;28;20043;-89
2021/12/01 10:41:11;;;;;;;3.95;2.03;;;;;;;-1.99;58.09;96785.44;4994604;28;20046;-88
2021/12/01 10:43:47;;;;;;;2.88;2.05;;;;;;;-2.08;58.60;96784.59;4947191;28;20039;-87
2021/12/01 10:46:16;;;;;;;4.22;2.00;;;;;;;-1.78;58.32;96785.44;4963548;28;20070;-87
2021/12/01 10:48:42;;;;;;;2.97;1.65;;;;;;;-1.66;58.00;96772.69;5025009;23;20073;-88
2021/12/01 10:51:10;;;;;;;2.63;1.70;;;;;;;-1.63;59.16;96805.72;4976434;28;20050;-88
2021/12/01 10:53:38;;;;;;;3.25;2.00;;;;;;;-1.88;57.59;96798.97;5156341;23;20047;-86
2021/12/01 10:56:05;;;;;;;2.80;1.55;;;;;;;-1.63;58.69;96794.72;4964418;28;20045;-88
2021/12/01 10:58:39;;;;;;;3.97;1.70;;;;;;;-1.90;56.99;96809.16;4965265;28;20053;-88
2021/12/01 11:01:19;;;;;;;2.47;1.60;;;;;;;-1.68;58.21;96787.09;4943128;28;20051;-89
2021/12/01 11:06:22;;;;;;;3.25;1.80;;;;;;;-1.30;58.66;96801.41;4258868;26;20059;-87
2021/12/01 11:08:57;;;;;;;2.83;1.80;;;;;;;-1.21;58.55;96792.88;4978078;28;20042;-90
2021/12/01 11:11:45;;;;;;;3.90;2.42;;;;;;;-1.34;58.82;96799.72;4960118;29;20063;-88
2021/12/01 11:14:17;;;;;;;5.57;1.60;;;;;;;-0.98;58.79;96790.25;4962217;29;20031;-90
2021/12/01 11:16:46;;;;;;;3.17;1.77;;;;;;;-1.35;58.03;96795.47;4953053;28;20490;-88
2021/12/01 11:19:14;;;;;;;3.08;1.70;;;;;;;-1.25;57.26;96802.22;4979791;28;20058;-88
2021/12/01 11:21:40;;;;;;;;;;;;;;;-1.24;56.93;96839.50;4950448;28;20042;-92
2021/12/01 11:29:29;;;;;;;2.78;1.73;;;;;;;-1.09;55.91;96814.03;1400240;26;20204;-88
2021/12/01 11:31:55;;;;;;;3.55;2.10;;;;;;;-1.02;56.00;96808.06;4985428;28;20069;-89
2021/12/01 11:34:23;;;;;;;2.50;1.77;;;;;;;-1.28;56.83;96804.78;4972629;28;20038;-88
2021/12/01 11:36:51;;;;;;;4.45;2.28;;;;;;;-1.23;57.47;96823.44;4979886;28;20042;-89
2021/12/01 11:39:23;;;;;;;4.22;2.42;;;;;;;-1.27;57.28;96809.03;4984650;28;20045;-90
2021/12/01 11:44:54;;;;;;;5.85;2.80;;;;;;;-1.40;58.68;96830.25;3691546;23;20066;-89
2021/12/01 11:47:22;;;;;;;7.80;2.35;;;;;;;-1.52;58.13;96815.00;5124258;23;20062;-88
2021/12/01 11:49:50;;;;;;;3.38;1.98;;;;;;;-1.40;58.56;96830.25;4962346;28;20083;-88
2021/12/01 11:52:16;;;;;;;3.63;2.00;;;;;;;-1.39;59.26;96821.75;4962924;28;20057;-90
2021/12/01 11:54:43;;;;;;;5.10;2.10;;;;;;;-1.43;58.45;96825.16;4963555;28;20042;-88
2021/12/01 11:57:11;;;;;;;2.70;1.70;;;;;;;-1.04;58.87;96839.47;4964675;28;20038;-89
2021/12/01 11:59:50;;;;;;;5.25;2.10;;;;;;;-1.04;57.74;96837.75;4964878;28;20031;-90
2021/12/01 12:04:53;;;;;;;3.03;1.70;;;;;;;-0.70;57.24;96847.78;4511745;26;20062;-89
2021/12/01 12:07:27;;;;;;;3.90;1.70;;;;;;;-0.79;57.84;96865.66;4980624;28;20059;-89
2021/12/01 12:10:16;;;;;;;2.53;1.67;;;;;;;-0.78;57.78;96864.78;4997535;28;20114;-88
2021/12/01 12:12:57;;;;;;;6.70;3.75;;;;;;;-0.55;56.50;96864.69;4963759;28;20094;-89
2021/12/01 12:15:47;;;;;;;2.53;1.42;;;;;;;-0.54;55.69;96872.34;4965482;28;20038;-91
2021/12/01 12:18:37;;;;;;;3.67;1.73;;;;;;;-1.06;56.24;96869.97;4995469;28;20046;-88
2021/12/01 12:21:18;;;;;;;3.08;1.80;;;;;;;-0.91;57.73;96865.72;4997327;28;20030;-92
2021/12/01 12:23:45;;;;;;;4.90;1.98;;;;;;;-1.06;57.11;96862.34;4976956;28;20211;-91
2021/12/01 12:26:11;;;;;;;2.90;1.52;;;;;;;-1.00;57.02;96860.66;4943960;29;20019;-88
2021/12/01 12:28:41;;;;;;;6.20;2.22;;;;;;;-1.03;57.08;96879.31;4958310;28;20047;-88